Date,TemperatureHighF,TemperatureAvgF,TemperatureLowF,DewpointHighF,DewpointAvgF,DewpointLowF,HumidityHigh,HumidityAvg,HumidityLow,PressureMaxIn,PressureMinIn,WindSpeedMaxMPH,WindSpeedAvgMPH,GustSpeedMaxMPH,PrecipitationSumIn
2013-2-1,9.0,-3.2,-15.0,3.0,-12.0,-26.0,78,65,57,30.30,29.98,0,-999,0,0.00
2013-2-2,19.0,8.3,0.0,14.0,2.0,-8.0,85,74,70,30.16,29.92,0,-999,0,0.00
2013-2-3,23.0,12.3,9.0,16.0,4.7,0.0,85,71,61,30.13,29.94,0,-999,0,0.00
2013-2-4,27.0,10.2,-4.0,21.0,2.8,-11.0,85,71,60,30.05,29.66,0,-999,0,0.00
2013-2-5,34.0,21.6,9.0,28.0,14.9,1.0,86,75,67,30.06,29.65,0,-999,0,0.00
2013-2-6,30.0,20.4,7.0,27.0,15.6,1.0,86,81,71,30.06,29.83,0,-999,0,0.00
2013-2-7,21.0,20.7,19.0,19.0,17.7,16.0,92,85,79,30.30,30.03,0,-999,0,0.00
2013-2-8,27.0,19.2,9.0,19.0,14.3,5.0,85,81,73,30.30,30.03,0,-999,0,0.00
2013-2-9,34.0,29.9,23.0,30.0,26.1,19.0,92,85,79,30.03,29.80,0,-999,0,0.00
2013-2-10,30.0,27.3,25.0,28.0,25.5,23.0,92,92,92,29.80,29.41,0,-999,0,0.00
2013-2-11,25.0,20.6,19.0,23.0,15.8,10.0,92,80,67,30.05,29.61,0,-999,0,0.00
2013-2-12,27.0,21.8,9.0,19.0,14.4,3.0,85,73,58,30.02,29.83,0,-999,0,0.00
2013-2-13,36.0,29.9,21.0,30.0,23.7,16.0,92,78,69,29.83,29.60,0,-999,0,0.00
2013-2-14,27.0,17.0,0.0,25.0,11.1,-8.0,92,77,65,30.26,29.75,0,-999,0,0.00
2013-2-15,14.0,5.9,-2.0,7.0,-0.3,-9.0,84,74,70,30.36,30.25,0,-999,0,0.00
2013-2-16,18.0,9.0,-2.0,12.0,3.1,-8.0,85,76,70,30.26,29.99,0,-999,0,0.00
2013-2-17,34.0,22.3,10.0,28.0,17.6,7.0,92,81,74,30.00,29.53,0,-999,0,0.00
2013-2-18,36.0,15.3,1.0,30.0,9.0,-8.0,92,75,65,30.04,29.53,0,-999,0,0.00
2013-2-19,12.0,-5.6,-13.0,3.0,-15.1,-22.0,70,62,57,30.43,30.04,0,-999,0,0.00
2013-2-20,3.0,-7.7,-18.0,-6.0,-16.4,-29.0,70,65,56,30.45,30.32,0,-999,0,0.00
2013-2-21,16.0,5.6,-8.0,9.0,-2.1,-15.0,76,69,65,30.35,30.11,0,-999,0,0.00
2013-2-22,19.0,16.4,12.0,14.0,10.6,7.0,79,77,72,30.11,29.93,0,-999,0,0.00
2013-2-23,23.0,10.9,0.0,10.0,3.4,-8.0,84,71,53,29.93,29.87,0,-999,0,0.00
2013-2-24,19.0,7.9,-6.0,12.0,1.8,-11.0,85,75,70,30.08,29.93,0,-999,0,0.00
2013-2-25,27.0,20.1,10.0,21.0,16.3,7.0,92,84,73,30.11,30.04,0,-999,0,0.00
2013-2-26,25.0,20.2,18.0,21.0,17.8,14.0,92,89,85,30.05,30.00,0,-999,0,0.00
2013-2-27,27.0,21.1,12.0,21.0,16.1,9.0,92,81,73,30.14,30.01,0,-999,0,0.00
2013-2-28,25.0,21.8,18.0,19.0,17.1,10.0,85,81,72,30.27,30.14,0,-999,0,0.00